createdAt,value
2024-04-19T00:03:33.586Z,12.57
2024-04-19T00:08:38.586Z,11.05
2024-04-19T00:13:43.482Z,11.45
2024-04-19T00:18:48.489Z,12.90
2024-04-19T00:23:53.442Z,13.65
2024-04-19T00:28:58.343Z,12.50
2024-04-19T00:34:03.419Z,11.48
2024-04-19T00:39:08.412Z,10.45
2024-04-19T00:44:13.382Z,10.05
2024-04-19T00:49:18.298Z,9.82
2024-04-19T00:54:23.583Z,9.70
2024-04-19T00:59:28.527Z,10.77
2024-04-19T01:04:33.607Z,9.88
2024-04-19T01:09:38.552Z,11.25
2024-04-19T01:14:43.499Z,11.00
2024-04-19T01:19:48.436Z,10.65
2024-04-19T01:24:55.710Z,10.38
2024-04-19T01:30:00.826Z,10.55
2024-04-19T01:35:06.330Z,11.07
2024-04-19T01:40:11.773Z,10.88
2024-04-19T01:45:16.657Z,10.50
2024-04-19T01:50:21.496Z,11.32
2024-04-19T01:55:26.918Z,10.60
2024-04-19T02:00:32.096Z,11.30
2024-04-19T02:05:37.506Z,11.27
2024-04-19T02:10:42.371Z,11.27
2024-04-19T02:15:47.271Z,12.05
2024-04-19T02:20:52.146Z,11.05
2024-04-19T02:25:57.486Z,10.88
2024-04-19T02:31:05.314Z,10.48
2024-04-19T02:36:11.059Z,11.13
2024-04-19T02:41:16.042Z,11.30
2024-04-19T02:46:21.374Z,11.63
2024-04-19T02:51:26.353Z,11.38
2024-04-19T02:56:31.281Z,11.00
2024-04-19T03:01:37.430Z,11.73
2024-04-19T03:06:42.262Z,11.70
2024-04-19T03:11:47.086Z,16.40
2024-04-19T03:16:55.554Z,12.25
2024-04-19T03:22:00.374Z,10.95
2024-04-19T03:27:08.366Z,12.27
2024-04-19T03:32:13.214Z,12.20
2024-04-19T03:37:18.116Z,11.38
2024-04-19T03:42:22.921Z,12.00
2024-04-19T03:47:27.786Z,11.95
2024-04-19T03:52:32.651Z,11.88
2024-04-19T03:57:37.477Z,12.05
2024-04-19T04:02:42.401Z,12.40
2024-04-19T04:07:47.313Z,11.82
2024-04-19T04:12:56.258Z,12.30
2024-04-19T04:18:03.502Z,12.45
2024-04-19T04:23:08.598Z,13.02
2024-04-19T04:28:13.394Z,12.88
2024-04-19T04:33:18.278Z,12.82
2024-04-19T04:38:23.118Z,12.93
2024-04-19T04:43:27.986Z,12.57
2024-04-19T04:48:32.834Z,12.90
2024-04-19T04:53:37.870Z,13.07
2024-04-19T04:58:42.736Z,13.00
2024-04-19T05:03:51.374Z,13.65
2024-04-19T05:08:56.310Z,12.95
2024-04-19T05:14:01.161Z,12.70
2024-04-19T05:19:06.005Z,13.65
2024-04-19T05:24:11.027Z,13.30
2024-04-19T05:29:16.475Z,12.43
2024-04-19T05:34:21.359Z,12.18
2024-04-19T05:39:26.199Z,12.48
2024-04-19T05:44:32.710Z,13.30
2024-04-19T05:49:37.723Z,12.40
2024-04-19T05:54:42.623Z,11.65
2024-04-19T05:59:47.452Z,12.73
2024-04-19T06:04:52.256Z,11.00
2024-04-19T06:09:57.151Z,11.55
2024-04-19T06:15:02.009Z,11.25
2024-04-19T06:20:06.942Z,12.50
2024-04-19T06:25:13.064Z,12.05
2024-04-19T06:30:17.967Z,11.90
2024-04-19T06:35:23.368Z,11.80
2024-04-19T06:40:28.429Z,12.10
2024-04-19T06:45:38.288Z,11.32
2024-04-19T06:50:43.170Z,11.73
2024-04-19T06:55:49.307Z,12.05
2024-04-19T07:01:08.979Z,12.05
2024-04-19T07:06:24.207Z,12.50
2024-04-19T07:11:36.018Z,12.90
2024-04-19T07:16:43.303Z,12.38
2024-04-19T07:26:53.488Z,11.68
2024-04-19T07:31:58.286Z,13.13
2024-04-19T07:37:03.124Z,11.98
2024-04-19T07:42:08.063Z,10.43
2024-04-19T07:47:13.050Z,10.02
2024-04-19T07:52:17.840Z,8.35
2024-04-19T07:57:22.774Z,8.13
2024-04-19T08:02:27.695Z,7.63
2024-04-19T08:07:39.789Z,7.55
2024-04-19T08:12:45.503Z,7.35
2024-04-19T08:17:52.169Z,8.27
2024-04-19T08:22:57.141Z,9.52
2024-04-19T08:28:02.052Z,10.35
2024-04-19T08:33:07.180Z,9.55
2024-04-19T08:38:12.146Z,10.20
2024-04-19T08:43:18.981Z,9.88
2024-04-19T08:48:24.011Z,10.70
2024-04-19T08:53:29.984Z,10.85
2024-04-19T08:58:34.822Z,11.38
2024-04-19T09:03:39.944Z,10.60
2024-04-19T09:08:45.613Z,10.85
2024-04-19T09:13:50.462Z,11.13
2024-04-19T09:18:55.281Z,10.75
2024-04-19T09:24:00.210Z,11.60
2024-04-19T09:29:06.242Z,10.85
2024-04-19T09:34:11.631Z,10.45
2024-04-19T09:39:17.885Z,11.00
2024-04-19T09:44:27.456Z,10.98
2024-04-19T09:49:35.037Z,9.18
2024-04-19T09:54:44.166Z,9.75
2024-04-19T09:59:49.677Z,9.43
2024-04-19T10:04:54.740Z,9.55
2024-04-19T10:10:00.306Z,10.45
2024-04-19T10:15:05.415Z,9.85
2024-04-19T10:20:12.799Z,10.13
2024-04-19T10:25:17.586Z,9.25
2024-04-19T10:30:28.138Z,9.70
2024-04-19T10:35:46.574Z,7.97
2024-04-19T10:40:51.367Z,8.73
2024-04-19T10:45:56.295Z,8.60
2024-04-19T10:51:05.045Z,8.00
2024-04-19T10:56:10.486Z,7.65
2024-04-19T11:01:15.339Z,8.60
2024-04-19T11:06:21.636Z,7.40
2024-04-19T11:11:26.795Z,10.20
2024-04-19T11:16:31.711Z,9.23
2024-04-19T11:21:36.953Z,9.98
2024-04-19T11:26:42.154Z,9.95
2024-04-19T11:31:46.964Z,11.20
2024-04-19T11:36:51.814Z,10.40
2024-04-19T11:41:56.813Z,7.78
2024-04-19T11:47:08.231Z,9.25
2024-04-19T11:52:13.091Z,9.23
2024-04-19T11:57:17.931Z,9.90
2024-04-19T12:02:22.990Z,7.18
2024-04-19T12:07:28.100Z,8.27
2024-04-19T12:13:09.858Z,8.98
2024-04-19T12:18:00.238Z,7.85
2024-04-19T12:23:07.873Z,8.35
2024-04-19T12:28:13.703Z,6.95
2024-04-19T12:33:19.053Z,6.15
2024-04-19T12:38:26.040Z,5.25
2024-04-19T12:43:31.030Z,5.63
2024-04-19T12:48:35.959Z,5.63
2024-04-19T12:53:40.879Z,5.15
2024-04-19T12:58:46.249Z,5.35
2024-04-19T13:03:52.118Z,6.03
2024-04-19T13:08:57.240Z,5.72
2024-04-19T13:14:02.031Z,8.25
2024-04-19T13:19:07.162Z,5.07
2024-04-19T13:24:12.037Z,4.90
2024-04-19T13:29:17.005Z,6.57
2024-04-19T13:34:21.852Z,5.10
2024-04-19T13:39:26.951Z,5.30
2024-04-19T13:44:32.104Z,9.88
2024-04-19T13:49:36.965Z,4.80
2024-04-19T13:54:41.891Z,5.32
2024-04-19T13:59:46.737Z,5.03
2024-04-19T14:04:51.566Z,5.60
2024-04-19T14:09:56.482Z,5.57
2024-04-19T14:15:01.523Z,9.30
2024-04-19T14:20:06.546Z,6.80
2024-04-19T14:25:13.866Z,4.97
2024-04-19T14:30:18.820Z,5.18
2024-04-19T14:35:24.940Z,5.00
2024-04-19T14:40:31.871Z,4.85
2024-04-19T14:45:38.223Z,3.28
2024-04-19T14:50:43.087Z,3.60
2024-04-19T14:55:48.118Z,5.35
2024-04-19T15:00:53.282Z,5.38
2024-04-19T15:06:55.082Z,5.07
2024-04-19T15:12:00.729Z,4.90
2024-04-19T15:17:06.333Z,3.58
2024-04-19T15:22:11.197Z,4.45
2024-04-19T15:27:15.997Z,3.85
2024-04-19T15:32:20.857Z,4.53
2024-04-19T15:37:25.673Z,6.07
2024-04-19T15:42:30.654Z,3.70
2024-04-19T15:47:35.783Z,4.35
2024-04-19T15:52:40.638Z,7.13
2024-04-19T15:57:45.618Z,3.58
2024-04-19T16:02:50.483Z,5.18
2024-04-19T16:07:55.797Z,3.70
2024-04-19T16:13:00.874Z,4.80
2024-04-19T16:18:06.422Z,4.03
2024-04-19T16:23:11.242Z,3.10
2024-04-19T16:28:16.033Z,2.50
2024-04-19T16:33:20.940Z,2.90
2024-04-19T16:38:25.966Z,2.80
2024-04-19T16:43:30.770Z,2.88
2024-04-19T16:48:35.615Z,3.30
2024-04-19T16:53:40.516Z,2.60
2024-04-19T16:58:45.431Z,3.65
2024-04-19T17:03:50.958Z,3.33
2024-04-19T17:08:56.057Z,4.57
2024-04-19T17:14:00.850Z,4.97
2024-04-19T17:19:05.747Z,5.57
2024-04-19T17:24:10.797Z,4.07
2024-04-19T17:29:15.588Z,3.47
2024-04-19T17:34:21.091Z,1.92
2024-04-19T17:39:26.003Z,4.40
2024-04-19T17:44:34.740Z,6.28
2024-04-19T17:49:40.297Z,3.20
2024-04-19T17:54:45.619Z,6.28
2024-04-19T17:59:50.400Z,3.38
2024-04-19T18:04:55.272Z,4.40
2024-04-19T18:10:00.249Z,2.13
2024-04-19T18:15:08.874Z,8.52
2024-04-19T18:20:13.880Z,3.10
2024-04-19T18:25:18.812Z,2.03
2024-04-19T18:30:23.654Z,1.73
2024-04-19T18:35:30.616Z,1.90
2024-04-19T18:40:36.682Z,1.60
2024-04-19T18:45:42.874Z,2.05
2024-04-19T18:50:47.815Z,1.45
2024-04-19T18:55:52.622Z,1.83
2024-04-19T19:00:57.485Z,4.18
2024-04-19T19:06:02.338Z,8.13
2024-04-19T19:11:15.215Z,3.28
2024-04-19T19:16:20.108Z,2.17
2024-04-19T19:21:26.086Z,2.25
2024-04-19T19:26:31.964Z,1.10
2024-04-19T19:31:37.397Z,0.90
2024-04-19T19:36:43.229Z,1.17
2024-04-19T19:41:48.133Z,1.30
2024-04-19T19:46:53.106Z,1.20
2024-04-19T19:51:58.019Z,0.90
2024-04-19T19:57:03.011Z,0.80
2024-04-19T20:02:24.198Z,0.70
2024-04-19T20:07:29.237Z,0.50
2024-04-19T20:12:35.366Z,0.80
2024-04-19T20:17:40.330Z,0.70
2024-04-19T20:22:45.199Z,0.70
2024-04-19T20:27:50.451Z,0.60
2024-04-19T20:32:55.393Z,0.60
2024-04-19T20:38:00.241Z,0.60
2024-04-19T20:43:15.337Z,0.80
2024-04-19T20:48:25.271Z,0.80
2024-04-19T20:53:30.240Z,0.88
2024-04-19T20:58:35.052Z,2.20
2024-04-19T21:03:39.972Z,2.75
2024-04-19T21:08:44.957Z,1.42
2024-04-19T21:13:49.757Z,5.30
2024-04-19T21:18:54.628Z,0.57
2024-04-19T21:23:59.479Z,0.60
2024-04-19T21:29:04.373Z,0.70
2024-04-19T21:34:09.323Z,0.60
2024-04-19T21:39:14.822Z,0.50
2024-04-19T21:44:19.660Z,0.60
2024-04-19T21:49:24.442Z,0.60
2024-04-19T21:54:29.282Z,0.60
2024-04-19T21:59:34.204Z,0.50
2024-04-19T22:04:39.134Z,0.70
2024-04-19T22:09:44.026Z,0.50
2024-04-19T22:14:48.899Z,0.70
2024-04-19T22:19:55.981Z,0.73
2024-04-19T22:25:00.861Z,1.08
2024-04-19T22:30:05.725Z,1.15
2024-04-19T22:35:10.771Z,1.40
2024-04-19T22:40:15.591Z,1.80
2024-04-19T22:45:20.424Z,2.13
2024-04-19T22:50:25.212Z,2.65
2024-04-19T22:55:30.001Z,2.72
2024-04-19T23:00:35.664Z,2.80
2024-04-19T23:05:40.534Z,2.78
2024-04-19T23:10:45.317Z,2.50
2024-04-19T23:15:50.187Z,2.25
2024-04-19T23:21:05.605Z,2.10
2024-04-19T23:26:12.467Z,2.22
2024-04-19T23:31:18.852Z,2.47
2024-04-19T23:36:23.626Z,2.40
2024-04-19T23:41:28.421Z,2.00
2024-04-19T23:46:33.254Z,2.60
2024-04-19T23:51:38.099Z,2.40
2024-04-19T23:56:43.000Z,2.05
